sensor_id;sensor_type;location;lat;lon;timestamp;P1;durP1;ratioP1;P2;durP2;ratioP2
10303;SDS011;5197;48.152;8.590;2022-09-21T00:01:16;2.13;;;1.93;;
10303;SDS011;5197;48.152;8.590;2022-09-21T00:03:52;2.43;;;2.20;;
10303;SDS011;5197;48.152;8.590;2022-09-21T00:06:21;2.40;;;2.17;;
10303;SDS011;5197;48.152;8.590;2022-09-21T00:08:50;2.17;;;2.07;;
10303;SDS011;5197;48.152;8.590;2022-09-21T00:11:19;2.90;;;2.33;;
10303;SDS011;5197;48.152;8.590;2022-09-21T00:13:51;2.47;;;1.93;;
10303;SDS011;5197;48.152;8.590;2022-09-21T00:16:23;3.07;;;2.20;;
10303;SDS011;5197;48.152;8.590;2022-09-21T00:18:50;2.50;;;1.90;;
10303;SDS011;5197;48.152;8.590;2022-09-21T00:21:17;3.00;;;2.27;;
10303;SDS011;5197;48.152;8.590;2022-09-21T00:23:45;3.17;;;2.40;;
10303;SDS011;5197;48.152;8.590;2022-09-21T00:26:22;3.13;;;2.30;;
10303;SDS011;5197;48.152;8.590;2022-09-21T00:28:53;5.57;;;2.33;;
10303;SDS011;5197;48.152;8.590;2022-09-21T00:31:22;2.57;;;2.37;;
10303;SDS011;5197;48.152;8.590;2022-09-21T00:33:49;3.13;;;2.23;;
10303;SDS011;5197;48.152;8.590;2022-09-21T00:36:18;3.03;;;2.20;;
10303;SDS011;5197;48.152;8.590;2022-09-21T00:38:50;5.67;;;2.40;;
10303;SDS011;5197;48.152;8.590;2022-09-21T00:41:19;3.37;;;2.47;;
10303;SDS011;5197;48.152;8.590;2022-09-21T00:43:48;4.57;;;2.57;;
10303;SDS011;5197;48.152;8.590;2022-09-21T00:46:35;2.97;;;2.50;;
10303;SDS011;5197;48.152;8.590;2022-09-21T00:49:05;3.07;;;2.50;;
10303;SDS011;5197;48.152;8.590;2022-09-21T00:51:33;3.23;;;2.70;;
10303;SDS011;5197;48.152;8.590;2022-09-21T00:54:02;2.73;;;2.40;;
10303;SDS011;5197;48.152;8.590;2022-09-21T00:56:33;4.50;;;2.77;;
10303;SDS011;5197;48.152;8.590;2022-09-21T00:59:02;6.33;;;3.03;;
10303;SDS011;5197;48.152;8.590;2022-09-21T01:01:30;4.47;;;3.00;;
10303;SDS011;5197;48.152;8.590;2022-09-21T01:03:57;3.97;;;2.67;;
10303;SDS011;5197;48.152;8.590;2022-09-21T01:06:25;8.10;;;3.20;;
10303;SDS011;5197;48.152;8.590;2022-09-21T01:08:53;5.40;;;2.73;;
10303;SDS011;5197;48.152;8.590;2022-09-21T01:17:05;6.27;;;3.30;;
10303;SDS011;5197;48.152;8.590;2022-09-21T01:22:12;4.07;;;3.03;;
10303;SDS011;5197;48.152;8.590;2022-09-21T01:24:48;4.37;;;2.90;;
10303;SDS011;5197;48.152;8.590;2022-09-21T01:30:39;3.87;;;3.00;;
10303;SDS011;5197;48.152;8.590;2022-09-21T01:33:16;3.20;;;2.80;;
10303;SDS011;5197;48.152;8.590;2022-09-21T01:35:51;4.30;;;2.90;;
10303;SDS011;5197;48.152;8.590;2022-09-21T01:38:26;3.30;;;3.00;;
10303;SDS011;5197;48.152;8.590;2022-09-21T01:41:04;5.37;;;2.97;;
10303;SDS011;5197;48.152;8.590;2022-09-21T01:43:34;4.13;;;3.50;;
10303;SDS011;5197;48.152;8.590;2022-09-21T01:46:05;4.27;;;3.13;;
10303;SDS011;5197;48.152;8.590;2022-09-21T01:48:37;4.40;;;3.10;;
10303;SDS011;5197;48.152;8.590;2022-09-21T01:51:08;3.47;;;3.17;;
10303;SDS011;5197;48.152;8.590;2022-09-21T01:53:41;4.93;;;3.30;;
10303;SDS011;5197;48.152;8.590;2022-09-21T01:58:42;6.03;;;3.50;;
10303;SDS011;5197;48.152;8.590;2022-09-21T02:01:15;3.57;;;3.23;;
10303;SDS011;5197;48.152;8.590;2022-09-21T02:03:47;3.87;;;3.47;;
10303;SDS011;5197;48.152;8.590;2022-09-21T02:06:23;7.53;;;4.23;;
10303;SDS011;5197;48.152;8.590;2022-09-21T02:08:53;4.40;;;3.70;;
10303;SDS011;5197;48.152;8.590;2022-09-21T02:11:21;3.93;;;3.53;;
10303;SDS011;5197;48.152;8.590;2022-09-21T02:13:49;4.77;;;3.90;;
10303;SDS011;5197;48.152;8.590;2022-09-21T02:16:33;4.33;;;3.47;;
10303;SDS011;5197;48.152;8.590;2022-09-21T02:24:20;3.77;;;3.40;;
10303;SDS011;5197;48.152;8.590;2022-09-21T02:26:49;4.80;;;3.43;;
10303;SDS011;5197;48.152;8.590;2022-09-21T02:29:32;4.90;;;3.20;;
10303;SDS011;5197;48.152;8.590;2022-09-21T02:38:23;5.87;;;4.27;;
10303;SDS011;5197;48.152;8.590;2022-09-21T02:43:59;5.90;;;4.13;;
10303;SDS011;5197;48.152;8.590;2022-09-21T02:46:38;3.63;;;3.33;;
10303;SDS011;5197;48.152;8.590;2022-09-21T02:49:10;5.87;;;3.80;;
10303;SDS011;5197;48.152;8.590;2022-09-21T02:51:49;5.83;;;3.67;;
10303;SDS011;5197;48.152;8.590;2022-09-21T02:54:20;5.77;;;4.00;;
10303;SDS011;5197;48.152;8.590;2022-09-21T02:56:50;4.43;;;3.57;;
10303;SDS011;5197;48.152;8.590;2022-09-21T02:59:19;7.37;;;3.83;;
10303;SDS011;5197;48.152;8.590;2022-09-21T03:01:49;4.93;;;3.33;;
10303;SDS011;5197;48.152;8.590;2022-09-21T03:04:17;4.90;;;3.77;;
10303;SDS011;5197;48.152;8.590;2022-09-21T03:06:44;4.60;;;3.70;;
10303;SDS011;5197;48.152;8.590;2022-09-21T03:09:11;6.23;;;3.70;;
10303;SDS011;5197;48.152;8.590;2022-09-21T03:11:38;4.37;;;3.80;;
10303;SDS011;5197;48.152;8.590;2022-09-21T03:14:07;8.10;;;4.97;;
10303;SDS011;5197;48.152;8.590;2022-09-21T03:16:35;11.40;;;5.30;;
10303;SDS011;5197;48.152;8.590;2022-09-21T03:19:03;7.47;;;5.17;;
10303;SDS011;5197;48.152;8.590;2022-09-21T03:21:30;9.60;;;4.90;;
10303;SDS011;5197;48.152;8.590;2022-09-21T03:23:57;6.47;;;4.73;;
10303;SDS011;5197;48.152;8.590;2022-09-21T03:26:24;4.57;;;4.07;;
10303;SDS011;5197;48.152;8.590;2022-09-21T03:28:51;8.10;;;4.63;;
10303;SDS011;5197;48.152;8.590;2022-09-21T03:31:20;9.57;;;4.33;;
10303;SDS011;5197;48.152;8.590;2022-09-21T03:33:47;4.93;;;4.43;;
10303;SDS011;5197;48.152;8.590;2022-09-21T03:36:15;7.27;;;4.80;;
10303;SDS011;5197;48.152;8.590;2022-09-21T03:38:42;5.87;;;4.53;;
10303;SDS011;5197;48.152;8.590;2022-09-21T03:41:09;5.97;;;4.73;;
10303;SDS011;5197;48.152;8.590;2022-09-21T03:43:36;7.03;;;5.13;;
10303;SDS011;5197;48.152;8.590;2022-09-21T03:46:03;4.97;;;4.47;;
10303;SDS011;5197;48.152;8.590;2022-09-21T03:48:30;5.97;;;4.63;;
10303;SDS011;5197;48.152;8.590;2022-09-21T03:50:57;6.57;;;5.30;;
10303;SDS011;5197;48.152;8.590;2022-09-21T03:53:25;4.97;;;4.23;;
10303;SDS011;5197;48.152;8.590;2022-09-21T03:55:51;5.43;;;4.93;;
10303;SDS011;5197;48.152;8.590;2022-09-21T03:58:18;6.00;;;4.23;;
10303;SDS011;5197;48.152;8.590;2022-09-21T04:00:47;5.73;;;4.30;;
10303;SDS011;5197;48.152;8.590;2022-09-21T04:03:14;8.00;;;4.77;;
10303;SDS011;5197;48.152;8.590;2022-09-21T04:05:41;5.90;;;4.87;;
10303;SDS011;5197;48.152;8.590;2022-09-21T04:08:08;7.23;;;4.53;;
10303;SDS011;5197;48.152;8.590;2022-09-21T04:10:35;6.43;;;4.70;;
10303;SDS011;5197;48.152;8.590;2022-09-21T04:13:02;8.90;;;4.67;;
10303;SDS011;5197;48.152;8.590;2022-09-21T04:15:30;6.07;;;4.90;;
10303;SDS011;5197;48.152;8.590;2022-09-21T04:17:57;6.77;;;4.50;;
10303;SDS011;5197;48.152;8.590;2022-09-21T04:20:24;6.47;;;4.60;;
10303;SDS011;5197;48.152;8.590;2022-09-21T04:22:51;6.00;;;4.13;;
10303;SDS011;5197;48.152;8.590;2022-09-21T04:25:19;5.43;;;4.93;;
10303;SDS011;5197;48.152;8.590;2022-09-21T04:27:45;5.30;;;4.80;;
10303;SDS011;5197;48.152;8.590;2022-09-21T04:30:14;6.57;;;4.83;;
10303;SDS011;5197;48.152;8.590;2022-09-21T04:32:42;8.40;;;5.50;;
10303;SDS011;5197;48.152;8.590;2022-09-21T04:35:09;12.57;;;5.47;;
10303;SDS011;5197;48.152;8.590;2022-09-21T04:37:36;11.37;;;5.17;;
10303;SDS011;5197;48.152;8.590;2022-09-21T04:40:03;7.90;;;5.00;;
10303;SDS011;5197;48.152;8.590;2022-09-21T04:42:31;8.83;;;4.93;;
10303;SDS011;5197;48.152;8.590;2022-09-21T04:44:58;7.50;;;4.63;;
10303;SDS011;5197;48.152;8.590;2022-09-21T04:47:27;8.20;;;4.90;;
10303;SDS011;5197;48.152;8.590;2022-09-21T04:49:55;8.00;;;4.83;;
10303;SDS011;5197;48.152;8.590;2022-09-21T04:52:23;9.60;;;5.10;;
10303;SDS011;5197;48.152;8.590;2022-09-21T04:54:49;12.20;;;5.37;;
10303;SDS011;5197;48.152;8.590;2022-09-21T04:57:17;8.47;;;5.20;;
10303;SDS011;5197;48.152;8.590;2022-09-21T04:59:43;6.23;;;5.10;;
10303;SDS011;5197;48.152;8.590;2022-09-21T05:02:10;10.67;;;4.83;;
10303;SDS011;5197;48.152;8.590;2022-09-21T05:04:37;6.70;;;4.60;;
10303;SDS011;5197;48.152;8.590;2022-09-21T05:07:04;12.87;;;5.30;;
10303;SDS011;5197;48.152;8.590;2022-09-21T05:09:31;5.70;;;4.30;;
10303;SDS011;5197;48.152;8.590;2022-09-21T05:12:17;6.83;;;4.60;;
10303;SDS011;5197;48.152;8.590;2022-09-21T05:14:44;7.57;;;4.17;;
10303;SDS011;5197;48.152;8.590;2022-09-21T05:17:11;7.77;;;4.70;;
10303;SDS011;5197;48.152;8.590;2022-09-21T05:19:38;7.13;;;4.30;;
10303;SDS011;5197;48.152;8.590;2022-09-21T05:22:06;9.10;;;4.53;;
10303;SDS011;5197;48.152;8.590;2022-09-21T05:24:33;8.80;;;4.70;;
10303;SDS011;5197;48.152;8.590;2022-09-21T05:27:00;6.73;;;5.00;;
10303;SDS011;5197;48.152;8.590;2022-09-21T05:29:27;7.43;;;5.10;;
10303;SDS011;5197;48.152;8.590;2022-09-21T05:31:56;5.97;;;4.17;;
10303;SDS011;5197;48.152;8.590;2022-09-21T05:34:34;5.80;;;4.27;;
10303;SDS011;5197;48.152;8.590;2022-09-21T05:39:36;6.83;;;3.60;;
10303;SDS011;5197;48.152;8.590;2022-09-21T05:42:04;5.60;;;4.40;;
10303;SDS011;5197;48.152;8.590;2022-09-21T05:44:31;5.60;;;3.80;;
10303;SDS011;5197;48.152;8.590;2022-09-21T05:55:46;16.30;;;4.20;;
10303;SDS011;5197;48.152;8.590;2022-09-21T06:03:32;10.27;;;3.73;;
10303;SDS011;5197;48.152;8.590;2022-09-21T06:06:01;9.90;;;4.30;;
10303;SDS011;5197;48.152;8.590;2022-09-21T06:08:28;13.57;;;5.10;;
10303;SDS011;5197;48.152;8.590;2022-09-21T06:10:55;10.00;;;4.93;;
10303;SDS011;5197;48.152;8.590;2022-09-21T06:13:22;25.87;;;5.87;;
10303;SDS011;5197;48.152;8.590;2022-09-21T06:15:49;36.57;;;5.37;;
10303;SDS011;5197;48.152;8.590;2022-09-21T06:18:16;34.30;;;6.43;;
10303;SDS011;5197;48.152;8.590;2022-09-21T06:20:44;27.93;;;5.97;;
10303;SDS011;5197;48.152;8.590;2022-09-21T06:23:12;28.53;;;6.67;;
10303;SDS011;5197;48.152;8.590;2022-09-21T06:25:39;32.47;;;6.60;;
10303;SDS011;5197;48.152;8.590;2022-09-21T06:28:07;33.13;;;7.80;;
10303;SDS011;5197;48.152;8.590;2022-09-21T06:30:36;16.73;;;6.50;;
10303;SDS011;5197;48.152;8.590;2022-09-21T06:33:05;18.50;;;6.20;;
10303;SDS011;5197;48.152;8.590;2022-09-21T06:35:33;30.23;;;6.70;;
10303;SDS011;5197;48.152;8.590;2022-09-21T06:38:05;53.10;;;7.30;;
10303;SDS011;5197;48.152;8.590;2022-09-21T06:40:34;45.27;;;6.80;;
10303;SDS011;5197;48.152;8.590;2022-09-21T06:43:03;11.13;;;6.63;;
10303;SDS011;5197;48.152;8.590;2022-09-21T06:45:30;21.00;;;6.20;;
10303;SDS011;5197;48.152;8.590;2022-09-21T06:47:57;12.83;;;5.67;;
10303;SDS011;5197;48.152;8.590;2022-09-21T06:50:24;11.73;;;6.07;;
10303;SDS011;5197;48.152;8.590;2022-09-21T06:52:52;17.53;;;6.13;;
10303;SDS011;5197;48.152;8.590;2022-09-21T06:55:19;11.47;;;6.20;;
10303;SDS011;5197;48.152;8.590;2022-09-21T06:57:46;11.93;;;6.33;;
10303;SDS011;5197;48.152;8.590;2022-09-21T07:00:13;10.13;;;6.00;;
10303;SDS011;5197;48.152;8.590;2022-09-21T07:02:43;6.57;;;5.80;;
10303;SDS011;5197;48.152;8.590;2022-09-21T07:05:11;7.50;;;5.77;;
10303;SDS011;5197;48.152;8.590;2022-09-21T07:07:38;5.80;;;5.30;;
10303;SDS011;5197;48.152;8.590;2022-09-21T07:10:06;8.10;;;5.70;;
10303;SDS011;5197;48.152;8.590;2022-09-21T07:12:41;5.73;;;5.10;;
10303;SDS011;5197;48.152;8.590;2022-09-21T07:15:08;6.73;;;5.10;;
10303;SDS011;5197;48.152;8.590;2022-09-21T07:17:37;8.47;;;5.10;;
10303;SDS011;5197;48.152;8.590;2022-09-21T07:20:05;8.57;;;5.20;;
10303;SDS011;5197;48.152;8.590;2022-09-21T07:22:34;6.90;;;5.07;;
10303;SDS011;5197;48.152;8.590;2022-09-21T07:25:01;11.40;;;6.60;;
10303;SDS011;5197;48.152;8.590;2022-09-21T07:27:30;7.90;;;5.93;;
10303;SDS011;5197;48.152;8.590;2022-09-21T07:29:59;8.37;;;6.00;;
10303;SDS011;5197;48.152;8.590;2022-09-21T07:32:26;6.03;;;5.43;;
10303;SDS011;5197;48.152;8.590;2022-09-21T07:34:53;4.90;;;4.50;;
10303;SDS011;5197;48.152;8.590;2022-09-21T07:37:23;5.53;;;4.97;;
10303;SDS011;5197;48.152;8.590;2022-09-21T07:39:50;4.67;;;4.20;;
10303;SDS011;5197;48.152;8.590;2022-09-21T07:42:18;5.83;;;4.00;;
10303;SDS011;5197;48.152;8.590;2022-09-21T07:44:48;4.27;;;3.87;;
10303;SDS011;5197;48.152;8.590;2022-09-21T07:47:16;4.37;;;3.97;;
10303;SDS011;5197;48.152;8.590;2022-09-21T07:49:43;7.43;;;4.30;;
10303;SDS011;5197;48.152;8.590;2022-09-21T07:52:12;3.83;;;3.43;;
10303;SDS011;5197;48.152;8.590;2022-09-21T07:54:40;4.67;;;4.10;;
10303;SDS011;5197;48.152;8.590;2022-09-21T07:57:07;3.57;;;3.33;;
10303;SDS011;5197;48.152;8.590;2022-09-21T07:59:53;4.03;;;3.67;;
10303;SDS011;5197;48.152;8.590;2022-09-21T08:02:23;3.57;;;3.27;;
10303;SDS011;5197;48.152;8.590;2022-09-21T08:04:50;4.33;;;3.70;;
10303;SDS011;5197;48.152;8.590;2022-09-21T08:07:17;3.28;;;3.08;;
10303;SDS011;5197;48.152;8.590;2022-09-21T08:09:44;3.22;;;2.92;;
10303;SDS011;5197;48.152;8.590;2022-09-21T08:12:14;5.30;;;3.33;;
10303;SDS011;5197;48.152;8.590;2022-09-21T08:14:44;2.80;;;2.60;;
10303;SDS011;5197;48.152;8.590;2022-09-21T08:17:11;3.30;;;2.90;;
10303;SDS011;5197;48.152;8.590;2022-09-21T08:19:38;3.42;;;2.80;;
10303;SDS011;5197;48.152;8.590;2022-09-21T08:22:05;3.15;;;2.50;;
10303;SDS011;5197;48.152;8.590;2022-09-21T08:24:32;3.83;;;2.80;;
10303;SDS011;5197;48.152;8.590;2022-09-21T08:27:00;4.68;;;2.85;;
10303;SDS011;5197;48.152;8.590;2022-09-21T08:29:27;4.00;;;3.03;;
10303;SDS011;5197;48.152;8.590;2022-09-21T08:31:55;3.05;;;2.85;;
10303;SDS011;5197;48.152;8.590;2022-09-21T08:34:23;2.60;;;2.40;;
10303;SDS011;5197;48.152;8.590;2022-09-21T08:36:51;2.85;;;2.50;;
10303;SDS011;5197;48.152;8.590;2022-09-21T08:39:21;3.40;;;2.60;;
10303;SDS011;5197;48.152;8.590;2022-09-21T08:44:29;2.58;;;2.38;;
10303;SDS011;5197;48.152;8.590;2022-09-21T08:47:07;4.18;;;2.35;;
10303;SDS011;5197;48.152;8.590;2022-09-21T08:49:39;2.30;;;2.15;;
10303;SDS011;5197;48.152;8.590;2022-09-21T08:52:11;2.50;;;2.30;;
10303;SDS011;5197;48.152;8.590;2022-09-21T08:57:25;3.65;;;2.25;;
10303;SDS011;5197;48.152;8.590;2022-09-21T08:59:55;4.22;;;2.30;;
10303;SDS011;5197;48.152;8.590;2022-09-21T09:05:54;5.43;;;2.70;;
10303;SDS011;5197;48.152;8.590;2022-09-21T09:22:14;3.13;;;2.63;;
10303;SDS011;5197;48.152;8.590;2022-09-21T09:24:51;3.83;;;2.80;;
10303;SDS011;5197;48.152;8.590;2022-09-21T09:27:23;2.70;;;2.47;;
10303;SDS011;5197;48.152;8.590;2022-09-21T09:30:17;3.07;;;2.57;;
10303;SDS011;5197;48.152;8.590;2022-09-21T09:32:58;1.60;;;1.50;;
10303;SDS011;5197;48.152;8.590;2022-09-21T09:35:44;3.13;;;2.07;;
10303;SDS011;5197;48.152;8.590;2022-09-21T09:44:02;2.17;;;1.97;;
10303;SDS011;5197;48.152;8.590;2022-09-21T09:52:23;3.47;;;2.83;;
10303;SDS011;5197;48.152;8.590;2022-09-21T09:54:51;2.33;;;2.13;;
10303;SDS011;5197;48.152;8.590;2022-09-21T09:57:23;3.90;;;2.47;;
10303;SDS011;5197;48.152;8.590;2022-09-21T10:00:04;2.40;;;2.20;;
10303;SDS011;5197;48.152;8.590;2022-09-21T10:02:45;3.43;;;1.80;;
10303;SDS011;5197;48.152;8.590;2022-09-21T10:05:21;1.63;;;1.53;;
10303;SDS011;5197;48.152;8.590;2022-09-21T10:07:48;3.47;;;1.90;;
10303;SDS011;5197;48.152;8.590;2022-09-21T10:10:25;1.73;;;1.43;;
10303;SDS011;5197;48.152;8.590;2022-09-21T10:18:46;2.23;;;1.40;;
10303;SDS011;5197;48.152;8.590;2022-09-21T10:21:15;2.23;;;1.43;;
10303;SDS011;5197;48.152;8.590;2022-09-21T10:23:55;1.70;;;1.30;;
10303;SDS011;5197;48.152;8.590;2022-09-21T10:26:34;1.93;;;1.57;;
10303;SDS011;5197;48.152;8.590;2022-09-21T10:32:02;2.30;;;1.07;;
10303;SDS011;5197;48.152;8.590;2022-09-21T10:34:39;2.30;;;1.03;;
10303;SDS011;5197;48.152;8.590;2022-09-21T10:37:24;1.60;;;1.43;;
10303;SDS011;5197;48.152;8.590;2022-09-21T10:42:48;1.90;;;1.37;;
10303;SDS011;5197;48.152;8.590;2022-09-21T10:45:26;1.97;;;1.33;;
10303;SDS011;5197;48.152;8.590;2022-09-21T10:48:06;2.60;;;1.10;;
10303;SDS011;5197;48.152;8.590;2022-09-21T10:53:15;1.47;;;1.37;;
10303;SDS011;5197;48.152;8.590;2022-09-21T10:55:46;2.00;;;1.17;;
10303;SDS011;5197;48.152;8.590;2022-09-21T10:59:08;1.23;;;1.00;;
10303;SDS011;5197;48.152;8.590;2022-09-21T11:01:46;2.67;;;1.30;;
10303;SDS011;5197;48.152;8.590;2022-09-21T11:04:17;1.90;;;1.00;;
10303;SDS011;5197;48.152;8.590;2022-09-21T11:06:53;0.80;;;0.70;;
10303;SDS011;5197;48.152;8.590;2022-09-21T11:09:36;0.80;;;0.80;;
10303;SDS011;5197;48.152;8.590;2022-09-21T11:15:18;1.67;;;1.20;;
10303;SDS011;5197;48.152;8.590;2022-09-21T11:18:38;0.80;;;0.80;;
10303;SDS011;5197;48.152;8.590;2022-09-21T11:20:54;1.73;;;1.13;;
10303;SDS011;5197;48.152;8.590;2022-09-21T11:23:29;1.37;;;1.20;;
10303;SDS011;5197;48.152;8.590;2022-09-21T11:26:14;1.73;;;1.30;;
10303;SDS011;5197;48.152;8.590;2022-09-21T12:12:54;1.20;;;0.70;;
10303;SDS011;5197;48.152;8.590;2022-09-21T12:15:34;2.13;;;0.90;;
10303;SDS011;5197;48.152;8.590;2022-09-21T12:23:17;2.27;;;0.90;;
10303;SDS011;5197;48.152;8.590;2022-09-21T12:25:49;0.77;;;0.70;;
10303;SDS011;5197;48.152;8.590;2022-09-21T12:30:53;0.90;;;0.60;;
10303;SDS011;5197;48.152;8.590;2022-09-21T12:33:40;1.93;;;0.80;;
10303;SDS011;5197;48.152;8.590;2022-09-21T12:36:21;1.10;;;0.80;;
10303;SDS011;5197;48.152;8.590;2022-09-21T12:39:19;1.10;;;0.70;;
10303;SDS011;5197;48.152;8.590;2022-09-21T12:44:35;0.97;;;0.90;;
10303;SDS011;5197;48.152;8.590;2022-09-21T12:47:21;1.80;;;0.90;;
10303;SDS011;5197;48.152;8.590;2022-09-21T12:50:01;0.70;;;0.70;;
10303;SDS011;5197;48.152;8.590;2022-09-21T12:52:44;0.97;;;0.60;;
10303;SDS011;5197;48.152;8.590;2022-09-21T13:01:34;1.60;;;0.70;;
10303;SDS011;5197;48.152;8.590;2022-09-21T13:04:44;0.40;;;0.40;;
10303;SDS011;5197;48.152;8.590;2022-09-21T13:07:37;0.40;;;0.30;;
10303;SDS011;5197;48.152;8.590;2022-09-21T13:10:19;3.47;;;0.60;;
10303;SDS011;5197;48.152;8.590;2022-09-21T13:12:55;1.60;;;0.70;;
10303;SDS011;5197;48.152;8.590;2022-09-21T13:15:43;1.27;;;0.67;;
10303;SDS011;5197;48.152;8.590;2022-09-21T13:18:18;2.50;;;1.10;;
10303;SDS011;5197;48.152;8.590;2022-09-21T13:20:52;0.93;;;0.93;;
10303;SDS011;5197;48.152;8.590;2022-09-21T13:23:36;1.23;;;0.90;;
10303;SDS011;5197;48.152;8.590;2022-09-21T13:26:11;2.43;;;0.93;;
10303;SDS011;5197;48.152;8.590;2022-09-21T13:34:30;2.73;;;1.00;;
10303;SDS011;5197;48.152;8.590;2022-09-21T13:39:44;1.37;;;1.03;;
10303;SDS011;5197;48.152;8.590;2022-09-21T13:47:42;0.70;;;0.70;;
10303;SDS011;5197;48.152;8.590;2022-09-21T13:52:55;0.40;;;0.40;;
10303;SDS011;5197;48.152;8.590;2022-09-21T13:55:27;2.97;;;0.77;;
10303;SDS011;5197;48.152;8.590;2022-09-21T13:58:06;0.80;;;0.80;;
10303;SDS011;5197;48.152;8.590;2022-09-21T14:00:50;1.90;;;0.83;;
10303;SDS011;5197;48.152;8.590;2022-09-21T14:05:50;0.60;;;0.60;;
10303;SDS011;5197;48.152;8.590;2022-09-21T14:08:32;1.43;;;0.60;;
10303;SDS011;5197;48.152;8.590;2022-09-21T14:11:13;1.67;;;0.70;;
10303;SDS011;5197;48.152;8.590;2022-09-21T14:13:45;1.70;;;0.70;;
10303;SDS011;5197;48.152;8.590;2022-09-21T14:24:36;0.73;;;0.40;;
10303;SDS011;5197;48.152;8.590;2022-09-21T14:30:04;0.80;;;0.80;;
10303;SDS011;5197;48.152;8.590;2022-09-21T14:35:31;2.97;;;0.70;;
10303;SDS011;5197;48.152;8.590;2022-09-21T14:38:43;0.50;;;0.50;;
10303;SDS011;5197;48.152;8.590;2022-09-21T14:40:50;0.50;;;0.50;;
10303;SDS011;5197;48.152;8.590;2022-09-21T14:43:31;0.50;;;0.43;;
10303;SDS011;5197;48.152;8.590;2022-09-21T14:48:37;1.57;;;0.40;;
10303;SDS011;5197;48.152;8.590;2022-09-21T14:54:20;0.53;;;0.53;;
10303;SDS011;5197;48.152;8.590;2022-09-21T14:59:47;0.73;;;0.60;;
10303;SDS011;5197;48.152;8.590;2022-09-21T15:02:24;0.73;;;0.60;;
10303;SDS011;5197;48.152;8.590;2022-09-21T15:11:25;1.43;;;0.90;;
10303;SDS011;5197;48.152;8.590;2022-09-21T15:16:53;0.73;;;0.43;;
10303;SDS011;5197;48.152;8.590;2022-09-21T15:19:24;0.63;;;0.50;;
10303;SDS011;5197;48.152;8.590;2022-09-21T15:22:16;2.27;;;0.90;;
10303;SDS011;5197;48.152;8.590;2022-09-21T15:24:51;0.90;;;0.83;;
10303;SDS011;5197;48.152;8.590;2022-09-21T15:27:24;2.00;;;1.20;;
10303;SDS011;5197;48.152;8.590;2022-09-21T15:29:53;1.10;;;1.00;;
10303;SDS011;5197;48.152;8.590;2022-09-21T15:34:56;1.00;;;0.90;;
10303;SDS011;5197;48.152;8.590;2022-09-21T15:37:27;0.70;;;0.70;;
10303;SDS011;5197;48.152;8.590;2022-09-21T15:40:00;1.67;;;1.37;;
10303;SDS011;5197;48.152;8.590;2022-09-21T15:42:28;2.30;;;2.10;;
10303;SDS011;5197;48.152;8.590;2022-09-21T15:45:15;0.50;;;0.50;;
10303;SDS011;5197;48.152;8.590;2022-09-21T15:47:44;19.73;;;15.80;;
10303;SDS011;5197;48.152;8.590;2022-09-21T15:50:12;3.50;;;1.40;;
10303;SDS011;5197;48.152;8.590;2022-09-21T15:52:43;1.30;;;1.20;;
10303;SDS011;5197;48.152;8.590;2022-09-21T15:55:33;2.20;;;1.23;;
10303;SDS011;5197;48.152;8.590;2022-09-21T15:58:00;1.27;;;1.03;;
10303;SDS011;5197;48.152;8.590;2022-09-21T16:00:30;2.13;;;2.00;;
10303;SDS011;5197;48.152;8.590;2022-09-21T16:03:04;1.73;;;1.37;;
10303;SDS011;5197;48.152;8.590;2022-09-21T16:05:48;1.07;;;1.07;;
10303;SDS011;5197;48.152;8.590;2022-09-21T16:10:45;1.00;;;1.00;;
10303;SDS011;5197;48.152;8.590;2022-09-21T16:16:08;1.37;;;1.20;;
10303;SDS011;5197;48.152;8.590;2022-09-21T16:18:47;0.80;;;0.80;;
10303;SDS011;5197;48.152;8.590;2022-09-21T16:21:27;1.20;;;1.20;;
10303;SDS011;5197;48.152;8.590;2022-09-21T16:24:09;1.50;;;1.10;;
10303;SDS011;5197;48.152;8.590;2022-09-21T16:26:54;0.83;;;0.83;;
10303;SDS011;5197;48.152;8.590;2022-09-21T16:29:27;0.80;;;0.80;;
10303;SDS011;5197;48.152;8.590;2022-09-21T16:34:46;0.90;;;0.90;;
10303;SDS011;5197;48.152;8.590;2022-09-21T16:39:51;1.50;;;1.13;;
10303;SDS011;5197;48.152;8.590;2022-09-21T16:42:20;1.40;;;1.30;;
10303;SDS011;5197;48.152;8.590;2022-09-21T16:44:47;1.03;;;1.03;;
10303;SDS011;5197;48.152;8.590;2022-09-21T16:47:18;2.67;;;1.80;;
10303;SDS011;5197;48.152;8.590;2022-09-21T16:49:54;1.97;;;1.33;;
10303;SDS011;5197;48.152;8.590;2022-09-21T16:52:26;0.80;;;0.80;;
10303;SDS011;5197;48.152;8.590;2022-09-21T16:54:54;1.80;;;1.70;;
10303;SDS011;5197;48.152;8.590;2022-09-21T16:57:22;2.00;;;1.30;;
10303;SDS011;5197;48.152;8.590;2022-09-21T16:59:49;1.73;;;1.27;;
10303;SDS011;5197;48.152;8.590;2022-09-21T17:02:17;1.80;;;1.70;;
10303;SDS011;5197;48.152;8.590;2022-09-21T17:04:44;2.53;;;1.67;;
10303;SDS011;5197;48.152;8.590;2022-09-21T17:07:13;1.40;;;1.40;;
10303;SDS011;5197;48.152;8.590;2022-09-21T17:09:41;1.20;;;1.20;;
10303;SDS011;5197;48.152;8.590;2022-09-21T17:12:13;1.70;;;1.60;;
10303;SDS011;5197;48.152;8.590;2022-09-21T17:14:43;1.30;;;1.20;;
10303;SDS011;5197;48.152;8.590;2022-09-21T17:19:48;3.37;;;1.37;;
10303;SDS011;5197;48.152;8.590;2022-09-21T17:22:16;3.67;;;3.10;;
10303;SDS011;5197;48.152;8.590;2022-09-21T17:24:45;4.63;;;3.30;;
10303;SDS011;5197;48.152;8.590;2022-09-21T17:27:18;2.50;;;2.27;;
10303;SDS011;5197;48.152;8.590;2022-09-21T17:29:48;1.90;;;1.60;;
10303;SDS011;5197;48.152;8.590;2022-09-21T17:32:16;2.23;;;2.03;;
10303;SDS011;5197;48.152;8.590;2022-09-21T17:34:46;2.70;;;1.63;;
10303;SDS011;5197;48.152;8.590;2022-09-21T17:37:39;1.77;;;1.67;;
10303;SDS011;5197;48.152;8.590;2022-09-21T17:40:06;2.40;;;1.73;;
10303;SDS011;5197;48.152;8.590;2022-09-21T17:42:40;1.90;;;1.80;;
10303;SDS011;5197;48.152;8.590;2022-09-21T17:47:53;2.03;;;1.70;;
10303;SDS011;5197;48.152;8.590;2022-09-21T17:52:52;3.83;;;1.90;;
10303;SDS011;5197;48.152;8.590;2022-09-21T17:55:43;1.80;;;1.70;;
10303;SDS011;5197;48.152;8.590;2022-09-21T18:03:44;2.17;;;1.80;;
10303;SDS011;5197;48.152;8.590;2022-09-21T18:06:13;1.93;;;1.73;;
10303;SDS011;5197;48.152;8.590;2022-09-21T18:08:40;1.90;;;1.77;;
10303;SDS011;5197;48.152;8.590;2022-09-21T18:19:46;1.60;;;1.50;;
10303;SDS011;5197;48.152;8.590;2022-09-21T18:25:20;3.03;;;1.83;;
10303;SDS011;5197;48.152;8.590;2022-09-21T18:27:53;4.97;;;1.53;;
10303;SDS011;5197;48.152;8.590;2022-09-21T18:30:24;2.33;;;2.10;;
10303;SDS011;5197;48.152;8.590;2022-09-21T18:32:54;3.73;;;2.00;;
10303;SDS011;5197;48.152;8.590;2022-09-21T18:41:24;2.73;;;1.83;;
10303;SDS011;5197;48.152;8.590;2022-09-21T18:49:56;2.20;;;1.70;;
10303;SDS011;5197;48.152;8.590;2022-09-21T18:52:37;1.70;;;1.60;;
10303;SDS011;5197;48.152;8.590;2022-09-21T18:55:29;2.97;;;1.63;;
10303;SDS011;5197;48.152;8.590;2022-09-21T18:57:58;2.23;;;1.70;;
10303;SDS011;5197;48.152;8.590;2022-09-21T19:00:27;2.00;;;1.57;;
10303;SDS011;5197;48.152;8.590;2022-09-21T19:03:00;1.63;;;1.53;;
10303;SDS011;5197;48.152;8.590;2022-09-21T19:05:50;2.07;;;1.57;;
10303;SDS011;5197;48.152;8.590;2022-09-21T19:08:23;4.17;;;1.90;;
10303;SDS011;5197;48.152;8.590;2022-09-21T19:10:52;2.80;;;1.60;;
10303;SDS011;5197;48.152;8.590;2022-09-21T19:24:03;2.27;;;2.07;;
10303;SDS011;5197;48.152;8.590;2022-09-21T19:29:41;4.60;;;1.73;;
10303;SDS011;5197;48.152;8.590;2022-09-21T19:35:20;1.50;;;1.50;;
10303;SDS011;5197;48.152;8.590;2022-09-21T19:37:48;1.70;;;1.60;;
10303;SDS011;5197;48.152;8.590;2022-09-21T19:40:18;1.50;;;1.40;;
10303;SDS011;5197;48.152;8.590;2022-09-21T19:45:41;1.90;;;1.80;;
10303;SDS011;5197;48.152;8.590;2022-09-21T19:48:34;1.90;;;1.70;;
10303;SDS011;5197;48.152;8.590;2022-09-21T19:51:19;4.40;;;1.60;;
10303;SDS011;5197;48.152;8.590;2022-09-21T19:53:59;2.00;;;1.80;;
10303;SDS011;5197;48.152;8.590;2022-09-21T19:56:47;3.53;;;1.70;;
10303;SDS011;5197;48.152;8.590;2022-09-21T19:59:33;1.80;;;1.70;;
10303;SDS011;5197;48.152;8.590;2022-09-21T20:02:14;1.80;;;1.60;;
10303;SDS011;5197;48.152;8.590;2022-09-21T20:04:55;2.20;;;2.00;;
10303;SDS011;5197;48.152;8.590;2022-09-21T20:15:57;4.73;;;2.10;;
10303;SDS011;5197;48.152;8.590;2022-09-21T20:18:53;1.80;;;1.53;;